Pagrindinis puslapis
METAR-TAF:

METAR-TAF

Oro uostai :

Padangas, Indonezija

platuma: 00-47-12S, ilguma: 100-16-50E, Aukštis: 5 m

METAR: trūkstamas

Laikas: 21:05 (14:05 UTC)

Prognozė

Ataskaita buvo paskelbta 3 valandos ir 5 minutes, ne 11:00 UTC
Prognozė galioja nuo 20 metu 12 UTC su 21 metu 12 UTC
Vėjas 2 kt iš Šiaurės
Matomumas 10 km arba daugiau
Išsisklaidę debesys ne aukštis 2000 ft
Tapsmas
nuo 20 metu 12 UTC su 20 metu 14 UTC
Vėjas 3 kt iš Šiaurės
Tapsmas
nuo 21 metu 01 UTC su 21 metu 03 UTC
Vėjas 5 kt iš Pietvakarių

TAF: WIEE 201100Z 2012/2112 01002KT 9999 SCT020 BECMG 2012/2014 01003KT BECMG 2101/2103 22005KT

Orai ataskaitas ir orų prognozės (METAR, TAF).

turimą stotys yra geltonos ir raudonos taškus žemėlapyje.

Perkelti pele per norėdami pamatyti stoties vardą.

Tada spustelėkite, norėdami matyti oro stebėjimo ir prognozės.

Norėdami pakeisti žemėlapį: spustelėkite ant žalios mygtukų su juodo kryžiaus žemyn,; žalią mygtuką su brūkšneliu, jei norite nutolinti; arba žalių rodyklių gretimoms žemėlapius.


METAR-TAF: